sensor_id;sensor_type;location;lat;lon;timestamp;pressure;altitude;pressure_sealevel;temperature;humidity
39267;BME280;24967;51.154;13.812;2023-09-07T00:01:26;100201.19;;;16.21;82.10
39267;BME280;24967;51.154;13.812;2023-09-07T00:03:53;100199.53;;;16.20;82.17
39267;BME280;24967;51.154;13.812;2023-09-07T00:06:20;100198.50;;;16.21;82.28
39267;BME280;24967;51.154;13.812;2023-09-07T00:08:47;100196.84;;;16.20;82.37
39267;BME280;24967;51.154;13.812;2023-09-07T00:11:13;100198.69;;;16.20;82.62
39267;BME280;24967;51.154;13.812;2023-09-07T00:13:40;100199.03;;;16.17;83.18
39267;BME280;24967;51.154;13.812;2023-09-07T00:16:07;100201.88;;;16.15;83.28
39267;BME280;24967;51.154;13.812;2023-09-07T00:18:34;100205.56;;;16.14;83.40
39267;BME280;24967;51.154;13.812;2023-09-07T00:21:02;100204.75;;;16.14;83.55
39267;BME280;24967;51.154;13.812;2023-09-07T00:23:29;100203.91;;;16.13;83.45
39267;BME280;24967;51.154;13.812;2023-09-07T00:25:55;100206.59;;;16.13;83.91
39267;BME280;24967;51.154;13.812;2023-09-07T00:28:22;100207.59;;;16.12;83.86
39267;BME280;24967;51.154;13.812;2023-09-07T00:30:48;100213.81;;;16.13;84.09
39267;BME280;24967;51.154;13.812;2023-09-07T00:33:15;100223.69;;;16.12;84.04
39267;BME280;24967;51.154;13.812;2023-09-07T00:35:41;100217.47;;;16.12;83.93
39267;BME280;24967;51.154;13.812;2023-09-07T00:38:09;100214.97;;;16.10;84.05
39267;BME280;24967;51.154;13.812;2023-09-07T00:40:36;100215.13;;;16.09;83.87
39267;BME280;24967;51.154;13.812;2023-09-07T00:43:03;100211.63;;;16.08;83.92
39267;BME280;24967;51.154;13.812;2023-09-07T00:45:30;100218.00;;;16.07;83.97
39267;BME280;24967;51.154;13.812;2023-09-07T00:47:57;100212.97;;;16.04;83.68
39267;BME280;24967;51.154;13.812;2023-09-07T00:50:23;100216.16;;;15.99;83.75
39267;BME280;24967;51.154;13.812;2023-09-07T00:52:50;100211.66;;;15.92;84.30
39267;BME280;24967;51.154;13.812;2023-09-07T00:55:19;100207.78;;;15.86;84.32
39267;BME280;24967;51.154;13.812;2023-09-07T00:57:47;100206.09;;;15.85;83.77
39267;BME280;24967;51.154;13.812;2023-09-07T01:00:14;100206.13;;;15.77;84.07
39267;BME280;24967;51.154;13.812;2023-09-07T01:02:40;100205.97;;;15.70;84.57
39267;BME280;24967;51.154;13.812;2023-09-07T01:05:07;100208.47;;;15.72;84.65
39267;BME280;24967;51.154;13.812;2023-09-07T01:07:37;100207.25;;;15.66;84.77
39267;BME280;24967;51.154;13.812;2023-09-07T01:10:08;100201.78;;;15.68;84.37
39267;BME280;24967;51.154;13.812;2023-09-07T01:12:36;100199.94;;;15.68;84.17
39267;BME280;24967;51.154;13.812;2023-09-07T01:15:03;100200.75;;;15.69;84.17
39267;BME280;24967;51.154;13.812;2023-09-07T01:17:30;100198.22;;;15.67;83.97
39267;BME280;24967;51.154;13.812;2023-09-07T01:19:57;100194.03;;;15.65;84.09
39267;BME280;24967;51.154;13.812;2023-09-07T01:22:32;100199.72;;;15.62;83.74
39267;BME280;24967;51.154;13.812;2023-09-07T01:25:00;100191.69;;;15.62;83.80
39267;BME280;24967;51.154;13.812;2023-09-07T01:27:27;100191.16;;;15.58;83.85
39267;BME280;24967;51.154;13.812;2023-09-07T01:29:53;100190.50;;;15.56;83.79
39267;BME280;24967;51.154;13.812;2023-09-07T01:32:20;100186.66;;;15.50;83.90
39267;BME280;24967;51.154;13.812;2023-09-07T01:34:47;100194.84;;;15.49;83.73
39267;BME280;24967;51.154;13.812;2023-09-07T01:37:13;100194.00;;;15.48;83.94
39267;BME280;24967;51.154;13.812;2023-09-07T01:39:41;100190.69;;;15.46;84.11
39267;BME280;24967;51.154;13.812;2023-09-07T01:42:08;100186.50;;;15.44;83.72
39267;BME280;24967;51.154;13.812;2023-09-07T01:44:34;100184.78;;;15.43;83.65
39267;BME280;24967;51.154;13.812;2023-09-07T01:47:01;100187.66;;;15.41;83.76
39267;BME280;24967;51.154;13.812;2023-09-07T01:49:28;100186.31;;;15.37;83.58
39267;BME280;24967;51.154;13.812;2023-09-07T01:51:55;100202.53;;;15.35;83.36
39267;BME280;24967;51.154;13.812;2023-09-07T01:54:21;100201.03;;;15.33;83.14
39267;BME280;24967;51.154;13.812;2023-09-07T01:56:49;100199.00;;;15.27;83.72
39267;BME280;24967;51.154;13.812;2023-09-07T01:59:16;100193.66;;;15.27;83.82
39267;BME280;24967;51.154;13.812;2023-09-07T02:01:42;100199.19;;;15.25;83.39
39267;BME280;24967;51.154;13.812;2023-09-07T02:04:09;100187.28;;;15.20;84.21
39267;BME280;24967;51.154;13.812;2023-09-07T02:06:35;100191.81;;;15.19;83.98
39267;BME280;24967;51.154;13.812;2023-09-07T02:09:02;100187.63;;;15.17;83.80
39267;BME280;24967;51.154;13.812;2023-09-07T02:11:29;100191.47;;;15.14;83.78
39267;BME280;24967;51.154;13.812;2023-09-07T02:13:57;100184.44;;;15.13;83.64
39267;BME280;24967;51.154;13.812;2023-09-07T02:16:23;100184.78;;;15.10;84.30
39267;BME280;24967;51.154;13.812;2023-09-07T02:18:50;100193.78;;;15.09;84.53
39267;BME280;24967;51.154;13.812;2023-09-07T02:21:17;100186.91;;;15.06;84.67
39267;BME280;24967;51.154;13.812;2023-09-07T02:23:43;100186.06;;;15.06;84.43
39267;BME280;24967;51.154;13.812;2023-09-07T02:26:10;100196.13;;;15.04;84.29
39267;BME280;24967;51.154;13.812;2023-09-07T02:28:36;100190.78;;;15.04;84.49
39267;BME280;24967;51.154;13.812;2023-09-07T02:31:05;100186.59;;;15.01;84.53
39267;BME280;24967;51.154;13.812;2023-09-07T02:33:31;100186.06;;;14.98;84.58
39267;BME280;24967;51.154;13.812;2023-09-07T02:35:58;100191.72;;;14.95;85.06
39267;BME280;24967;51.154;13.812;2023-09-07T02:38:24;100189.06;;;14.95;85.16
39267;BME280;24967;51.154;13.812;2023-09-07T02:40:51;100191.22;;;14.91;85.72
39267;BME280;24967;51.154;13.812;2023-09-07T02:43:18;100195.06;;;14.88;86.38
39267;BME280;24967;51.154;13.812;2023-09-07T02:45:44;100193.25;;;14.89;86.22
39267;BME280;24967;51.154;13.812;2023-09-07T02:48:12;100190.56;;;14.89;86.42
39267;BME280;24967;51.154;13.812;2023-09-07T02:50:39;100191.41;;;14.89;86.28
39267;BME280;24967;51.154;13.812;2023-09-07T02:53:06;100200.25;;;14.90;86.03
39267;BME280;24967;51.154;13.812;2023-09-07T02:55:32;100195.75;;;14.91;86.05
39267;BME280;24967;51.154;13.812;2023-09-07T02:58:02;100195.22;;;14.87;85.46
39267;BME280;24967;51.154;13.812;2023-09-07T03:00:29;100192.06;;;14.83;85.34
39267;BME280;24967;51.154;13.812;2023-09-07T03:02:55;100196.03;;;14.79;85.24
39267;BME280;24967;51.154;13.812;2023-09-07T03:05:26;100201.06;;;14.74;84.18
39267;BME280;24967;51.154;13.812;2023-09-07T03:07:53;100194.50;;;14.69;83.59
39267;BME280;24967;51.154;13.812;2023-09-07T03:10:20;100201.84;;;14.58;83.68
39267;BME280;24967;51.154;13.812;2023-09-07T03:12:46;100204.69;;;14.39;83.87
39267;BME280;24967;51.154;13.812;2023-09-07T03:15:13;100197.69;;;14.38;84.50
39267;BME280;24967;51.154;13.812;2023-09-07T03:17:39;100192.31;;;14.38;84.67
39267;BME280;24967;51.154;13.812;2023-09-07T03:20:07;100197.16;;;14.34;84.97
39267;BME280;24967;51.154;13.812;2023-09-07T03:22:40;100188.28;;;14.34;85.20
39267;BME280;24967;51.154;13.812;2023-09-07T03:25:08;100189.97;;;14.35;85.23
39267;BME280;24967;51.154;13.812;2023-09-07T03:27:35;100193.63;;;14.34;85.44
39267;BME280;24967;51.154;13.812;2023-09-07T03:32:36;100186.59;;;14.33;85.26
39267;BME280;24967;51.154;13.812;2023-09-07T03:35:04;100190.59;;;14.29;85.43
39267;BME280;24967;51.154;13.812;2023-09-07T03:37:32;100191.25;;;14.23;86.19
39267;BME280;24967;51.154;13.812;2023-09-07T03:40:00;100194.06;;;14.21;86.44
39267;BME280;24967;51.154;13.812;2023-09-07T03:42:27;100194.88;;;14.21;86.63
39267;BME280;24967;51.154;13.812;2023-09-07T03:44:53;100194.75;;;14.23;86.48
39267;BME280;24967;51.154;13.812;2023-09-07T03:47:20;100201.25;;;14.20;86.39
39267;BME280;24967;51.154;13.812;2023-09-07T03:49:46;100202.41;;;14.18;86.93
39267;BME280;24967;51.154;13.812;2023-09-07T03:52:13;100204.38;;;14.16;86.69
39267;BME280;24967;51.154;13.812;2023-09-07T03:54:39;100207.53;;;14.11;87.01
39267;BME280;24967;51.154;13.812;2023-09-07T03:57:07;100202.81;;;14.05;86.59
39267;BME280;24967;51.154;13.812;2023-09-07T03:59:34;100204.81;;;14.03;86.49
39267;BME280;24967;51.154;13.812;2023-09-07T04:02:00;100204.28;;;14.00;86.22
39267;BME280;24967;51.154;13.812;2023-09-07T04:04:30;100208.09;;;13.97;86.18
39267;BME280;24967;51.154;13.812;2023-09-07T04:06:56;100202.09;;;13.95;85.97
39267;BME280;24967;51.154;13.812;2023-09-07T04:09:23;100203.25;;;13.92;86.16
39267;BME280;24967;51.154;13.812;2023-09-07T04:11:49;100202.72;;;13.89;86.73
39267;BME280;24967;51.154;13.812;2023-09-07T04:14:17;100206.88;;;13.91;86.38
39267;BME280;24967;51.154;13.812;2023-09-07T04:16:43;100207.88;;;13.90;86.70
39267;BME280;24967;51.154;13.812;2023-09-07T04:19:10;100204.53;;;13.88;86.86
39267;BME280;24967;51.154;13.812;2023-09-07T04:21:37;100211.72;;;13.88;86.68
39267;BME280;24967;51.154;13.812;2023-09-07T04:24:04;100208.38;;;13.86;86.69
39267;BME280;24967;51.154;13.812;2023-09-07T04:26:31;100209.22;;;13.86;86.35
39267;BME280;24967;51.154;13.812;2023-09-07T04:28:57;100205.97;;;13.83;85.93
39267;BME280;24967;51.154;13.812;2023-09-07T04:31:25;100210.66;;;13.81;86.08
39267;BME280;24967;51.154;13.812;2023-09-07T04:33:52;100207.00;;;13.82;86.36
39267;BME280;24967;51.154;13.812;2023-09-07T04:36:19;100207.81;;;13.82;86.07
39267;BME280;24967;51.154;13.812;2023-09-07T04:38:46;100209.97;;;13.79;85.98
39267;BME280;24967;51.154;13.812;2023-09-07T04:41:13;100211.63;;;13.80;86.71
39267;BME280;24967;51.154;13.812;2023-09-07T04:43:41;100216.16;;;13.79;87.19
39267;BME280;24967;51.154;13.812;2023-09-07T04:46:09;100216.00;;;13.81;87.18
39267;BME280;24967;51.154;13.812;2023-09-07T04:48:37;100216.53;;;13.84;87.09
39267;BME280;24967;51.154;13.812;2023-09-07T04:51:05;100217.53;;;13.83;87.31
39267;BME280;24967;51.154;13.812;2023-09-07T04:53:33;100209.22;;;13.86;87.01
39267;BME280;24967;51.154;13.812;2023-09-07T04:56:00;100219.28;;;13.92;86.99
39267;BME280;24967;51.154;13.812;2023-09-07T04:58:28;100217.97;;;13.96;87.46
39267;BME280;24967;51.154;13.812;2023-09-07T05:01:01;100227.34;;;14.01;87.82
39267;BME280;24967;51.154;13.812;2023-09-07T05:03:28;100221.38;;;14.07;87.93
39267;BME280;24967;51.154;13.812;2023-09-07T05:05:56;100216.41;;;14.12;87.64
39267;BME280;24967;51.154;13.812;2023-09-07T05:08:23;100219.59;;;14.15;87.73
39267;BME280;24967;51.154;13.812;2023-09-07T05:10:54;100222.13;;;14.17;87.51
39267;BME280;24967;51.154;13.812;2023-09-07T05:13:21;100227.16;;;14.20;87.85
39267;BME280;24967;51.154;13.812;2023-09-07T05:15:48;100224.00;;;14.25;87.57
39267;BME280;24967;51.154;13.812;2023-09-07T05:18:15;100220.16;;;14.27;87.53
39267;BME280;24967;51.154;13.812;2023-09-07T05:20:41;100213.66;;;14.30;87.38
39267;BME280;24967;51.154;13.812;2023-09-07T05:23:12;100222.72;;;14.37;87.77
39267;BME280;24967;51.154;13.812;2023-09-07T05:25:50;100223.94;;;14.42;87.70
39267;BME280;24967;51.154;13.812;2023-09-07T05:28:18;100228.81;;;14.47;87.62
39267;BME280;24967;51.154;13.812;2023-09-07T05:30:45;100230.06;;;14.53;87.76
39267;BME280;24967;51.154;13.812;2023-09-07T05:33:13;100232.09;;;14.59;87.70
39267;BME280;24967;51.154;13.812;2023-09-07T05:35:58;100242.16;;;14.65;87.77
39267;BME280;24967;51.154;13.812;2023-09-07T05:38:28;100240.50;;;14.72;87.99
39267;BME280;24967;51.154;13.812;2023-09-07T05:40:54;100244.22;;;14.79;87.94
39267;BME280;24967;51.154;13.812;2023-09-07T05:43:21;100236.53;;;14.84;88.40
39267;BME280;24967;51.154;13.812;2023-09-07T05:45:47;100238.75;;;14.97;88.65
39267;BME280;24967;51.154;13.812;2023-09-07T05:48:14;100243.81;;;15.08;89.08
39267;BME280;24967;51.154;13.812;2023-09-07T05:50:42;100252.13;;;15.48;91.91
39267;BME280;24967;51.154;13.812;2023-09-07T05:53:09;100254.44;;;16.57;94.40
39267;BME280;24967;51.154;13.812;2023-09-07T05:55:37;100237.28;;;17.91;92.21
39267;BME280;24967;51.154;13.812;2023-09-07T05:58:05;100238.81;;;19.27;86.34
39267;BME280;24967;51.154;13.812;2023-09-07T06:00:32;100237.31;;;20.60;77.64
39267;BME280;24967;51.154;13.812;2023-09-07T06:02:58;100235.25;;;21.91;71.89
39267;BME280;24967;51.154;13.812;2023-09-07T06:05:25;100240.69;;;23.16;65.12
39267;BME280;24967;51.154;13.812;2023-09-07T06:07:51;100232.75;;;24.35;60.32
39267;BME280;24967;51.154;13.812;2023-09-07T06:10:18;100237.09;;;25.46;55.23
39267;BME280;24967;51.154;13.812;2023-09-07T06:12:46;100232.69;;;26.53;50.85
39267;BME280;24967;51.154;13.812;2023-09-07T06:15:13;100227.66;;;27.54;47.30
39267;BME280;24967;51.154;13.812;2023-09-07T06:17:41;100227.84;;;28.48;44.91
39267;BME280;24967;51.154;13.812;2023-09-07T06:20:09;100225.88;;;29.32;43.05
39267;BME280;24967;51.154;13.812;2023-09-07T06:22:35;100224.41;;;30.10;41.41
39267;BME280;24967;51.154;13.812;2023-09-07T06:25:02;100228.66;;;30.76;39.64
39267;BME280;24967;51.154;13.812;2023-09-07T06:27:29;100227.00;;;31.43;38.80
39267;BME280;24967;51.154;13.812;2023-09-07T06:29:57;100224.88;;;32.06;37.86
39267;BME280;24967;51.154;13.812;2023-09-07T06:32:23;100238.00;;;32.60;36.64
39267;BME280;24967;51.154;13.812;2023-09-07T06:34:50;100226.56;;;33.08;36.33
39267;BME280;24967;51.154;13.812;2023-09-07T06:37:17;100230.16;;;33.53;35.36
39267;BME280;24967;51.154;13.812;2023-09-07T06:39:55;100233.06;;;34.01;34.31
39267;BME280;24967;51.154;13.812;2023-09-07T06:42:22;100221.78;;;34.32;33.44
39267;BME280;24967;51.154;13.812;2023-09-07T06:44:49;100229.84;;;34.76;32.71
39267;BME280;24967;51.154;13.812;2023-09-07T06:47:18;100231.28;;;35.17;32.12
39267;BME280;24967;51.154;13.812;2023-09-07T06:49:44;100227.16;;;35.52;31.43
39267;BME280;24967;51.154;13.812;2023-09-07T06:52:12;100216.22;;;35.66;30.24
39267;BME280;24967;51.154;13.812;2023-09-07T06:54:40;100224.03;;;35.77;30.05
39267;BME280;24967;51.154;13.812;2023-09-07T06:57:07;100231.56;;;35.34;30.78
39267;BME280;24967;51.154;13.812;2023-09-07T06:59:34;100233.09;;;34.30;30.91
39267;BME280;24967;51.154;13.812;2023-09-07T07:02:00;100238.34;;;33.63;32.79
39267;BME280;24967;51.154;13.812;2023-09-07T07:04:31;100231.88;;;32.74;33.57
39267;BME280;24967;51.154;13.812;2023-09-07T07:06:58;100237.53;;;32.02;35.32
39267;BME280;24967;51.154;13.812;2023-09-07T07:43:04;100249.03;;;31.63;37.31
39267;BME280;24967;51.154;13.812;2023-09-07T07:45:31;100251.50;;;32.52;35.78
39267;BME280;24967;51.154;13.812;2023-09-07T07:48:01;100248.84;;;33.12;33.52
39267;BME280;24967;51.154;13.812;2023-09-07T07:50:30;100240.78;;;33.70;32.55
39267;BME280;24967;51.154;13.812;2023-09-07T07:52:56;100241.97;;;34.27;31.63
39267;BME280;24967;51.154;13.812;2023-09-07T07:55:23;100246.16;;;34.97;30.97
39267;BME280;24967;51.154;13.812;2023-09-07T07:57:50;100246.50;;;35.52;30.25
39267;BME280;24967;51.154;13.812;2023-09-07T08:00:18;100237.38;;;36.22;28.32
39267;BME280;24967;51.154;13.812;2023-09-07T08:02:44;100241.25;;;36.54;28.01
39267;BME280;24967;51.154;13.812;2023-09-07T08:05:11;100241.53;;;36.94;27.12
39267;BME280;24967;51.154;13.812;2023-09-07T08:07:38;100241.56;;;37.07;27.23
39267;BME280;24967;51.154;13.812;2023-09-07T08:10:04;100238.78;;;37.07;27.19
39267;BME280;24967;51.154;13.812;2023-09-07T08:12:31;100239.00;;;37.33;27.35
39267;BME280;24967;51.154;13.812;2023-09-07T08:14:57;100230.63;;;37.84;26.37
39267;BME280;24967;51.154;13.812;2023-09-07T08:17:26;100235.00;;;37.98;26.30
39267;BME280;24967;51.154;13.812;2023-09-07T08:19:53;100231.66;;;38.10;26.09
39267;BME280;24967;51.154;13.812;2023-09-07T08:22:21;100228.91;;;38.19;25.08
39267;BME280;24967;51.154;13.812;2023-09-07T08:24:48;100225.75;;;38.12;25.14
39267;BME280;24967;51.154;13.812;2023-09-07T08:27:16;100228.94;;;37.74;25.44
39267;BME280;24967;51.154;13.812;2023-09-07T08:29:44;100226.50;;;38.26;25.29
39267;BME280;24967;51.154;13.812;2023-09-07T08:32:14;100224.88;;;38.25;24.75
39267;BME280;24967;51.154;13.812;2023-09-07T08:34:42;100216.75;;;38.77;24.89
39267;BME280;24967;51.154;13.812;2023-09-07T08:37:09;100216.69;;;39.26;24.97
39267;BME280;24967;51.154;13.812;2023-09-07T08:39:36;100214.38;;;39.71;24.32
39267;BME280;24967;51.154;13.812;2023-09-07T08:42:05;100214.53;;;39.92;22.68
39267;BME280;24967;51.154;13.812;2023-09-07T08:47:07;100217.34;;;39.57;23.38
39267;BME280;24967;51.154;13.812;2023-09-07T08:49:34;100222.59;;;39.76;23.03
39267;BME280;24967;51.154;13.812;2023-09-07T08:52:04;100222.00;;;40.18;23.93
39267;BME280;24967;51.154;13.812;2023-09-07T08:54:33;100218.22;;;40.31;22.38
39267;BME280;24967;51.154;13.812;2023-09-07T08:57:02;100223.47;;;40.24;23.39
39267;BME280;24967;51.154;13.812;2023-09-07T09:02:10;100222.66;;;40.15;22.73
39267;BME280;24967;51.154;13.812;2023-09-07T09:04:37;100222.66;;;40.23;22.50
39267;BME280;24967;51.154;13.812;2023-09-07T09:07:05;100216.00;;;40.45;22.16
39267;BME280;24967;51.154;13.812;2023-09-07T09:09:32;100230.75;;;39.81;22.24
39267;BME280;24967;51.154;13.812;2023-09-07T09:12:06;100222.09;;;39.83;23.06
39267;BME280;24967;51.154;13.812;2023-09-07T09:14:33;100226.59;;;40.22;23.72
39267;BME280;24967;51.154;13.812;2023-09-07T09:19:30;100215.94;;;40.92;22.10
39267;BME280;24967;51.154;13.812;2023-09-07T09:21:57;100226.56;;;40.69;22.17
39267;BME280;24967;51.154;13.812;2023-09-07T09:24:25;100223.66;;;40.57;22.92
39267;BME280;24967;51.154;13.812;2023-09-07T09:26:52;100221.19;;;40.08;22.60
39267;BME280;24967;51.154;13.812;2023-09-07T09:29:21;100220.78;;;39.63;23.89
39267;BME280;24967;51.154;13.812;2023-09-07T09:31:48;100218.34;;;39.35;23.04
39267;BME280;24967;51.154;13.812;2023-09-07T09:34:15;100222.59;;;38.67;24.09
39267;BME280;24967;51.154;13.812;2023-09-07T09:36:42;100220.16;;;37.80;24.60
39267;BME280;24967;51.154;13.812;2023-09-07T09:39:09;100217.53;;;37.17;26.65
39267;BME280;24967;51.154;13.812;2023-09-07T09:41:37;100217.84;;;36.87;26.81
39267;BME280;24967;51.154;13.812;2023-09-07T09:44:05;100222.72;;;36.21;26.48
39267;BME280;24967;51.154;13.812;2023-09-07T09:46:32;100219.78;;;35.47;28.18
39267;BME280;24967;51.154;13.812;2023-09-07T09:51:37;100211.66;;;34.22;29.08
39267;BME280;24967;51.154;13.812;2023-09-07T09:54:06;100212.75;;;33.58;30.46
39267;BME280;24967;51.154;13.812;2023-09-07T09:56:33;100212.59;;;33.39;30.46
39267;BME280;24967;51.154;13.812;2023-09-07T09:59:00;100224.47;;;33.34;31.80
39267;BME280;24967;51.154;13.812;2023-09-07T10:01:28;100214.16;;;33.05;30.57
39267;BME280;24967;51.154;13.812;2023-09-07T10:03:57;100218.06;;;32.99;31.01
39267;BME280;24967;51.154;13.812;2023-09-07T10:06:28;100210.09;;;32.93;32.83
39267;BME280;24967;51.154;13.812;2023-09-07T10:08:58;100219.69;;;33.00;30.60
39267;BME280;24967;51.154;13.812;2023-09-07T10:11:30;100218.03;;;33.04;31.69
39267;BME280;24967;51.154;13.812;2023-09-07T10:13:57;100215.53;;;33.08;31.49
39267;BME280;24967;51.154;13.812;2023-09-07T10:16:26;100213.59;;;33.09;31.23
39267;BME280;24967;51.154;13.812;2023-09-07T10:18:53;100204.22;;;33.10;31.88
39267;BME280;24967;51.154;13.812;2023-09-07T10:21:23;100209.72;;;33.10;32.20
39267;BME280;24967;51.154;13.812;2023-09-07T10:23:51;100205.56;;;33.17;30.65
39267;BME280;24967;51.154;13.812;2023-09-07T10:26:19;100207.53;;;33.12;31.33
39267;BME280;24967;51.154;13.812;2023-09-07T10:28:47;100205.94;;;33.00;33.11
39267;BME280;24967;51.154;13.812;2023-09-07T10:31:27;100197.38;;;32.97;33.12
39267;BME280;24967;51.154;13.812;2023-09-07T10:33:55;100200.41;;;33.05;32.89
39267;BME280;24967;51.154;13.812;2023-09-07T10:36:23;100200.41;;;33.00;32.29
39267;BME280;24967;51.154;13.812;2023-09-07T10:38:50;100190.84;;;32.82;32.73
39267;BME280;24967;51.154;13.812;2023-09-07T10:41:18;100194.38;;;32.93;32.66
39267;BME280;24967;51.154;13.812;2023-09-07T10:43:50;100185.06;;;32.84;31.74
39267;BME280;24967;51.154;13.812;2023-09-07T10:46:18;100186.28;;;32.57;32.02
39267;BME280;24967;51.154;13.812;2023-09-07T10:48:48;100187.13;;;32.37;32.84
39267;BME280;24967;51.154;13.812;2023-09-07T10:51:15;100183.56;;;32.37;32.92
39267;BME280;24967;51.154;13.812;2023-09-07T10:53:42;100180.28;;;32.25;32.59
39267;BME280;24967;51.154;13.812;2023-09-07T10:56:08;100183.59;;;32.27;32.96
39267;BME280;24967;51.154;13.812;2023-09-07T10:58:37;100186.38;;;32.06;33.12
39267;BME280;24967;51.154;13.812;2023-09-07T11:01:06;100177.03;;;31.97;33.69
39267;BME280;24967;51.154;13.812;2023-09-07T11:03:34;100173.75;;;32.00;33.67
39267;BME280;24967;51.154;13.812;2023-09-07T11:06:06;100176.75;;;31.88;33.53
39267;BME280;24967;51.154;13.812;2023-09-07T11:08:35;100175.94;;;31.88;33.23
39267;BME280;24967;51.154;13.812;2023-09-07T11:11:02;100173.72;;;31.85;33.00
39267;BME280;24967;51.154;13.812;2023-09-07T11:13:29;100183.63;;;31.70;34.99
39267;BME280;24967;51.154;13.812;2023-09-07T11:15:57;100175.66;;;31.94;34.35
39267;BME280;24967;51.154;13.812;2023-09-07T11:18:24;100174.81;;;32.04;34.53
39267;BME280;24967;51.154;13.812;2023-09-07T11:20:52;100183.09;;;31.94;34.41
39267;BME280;24967;51.154;13.812;2023-09-07T11:23:21;100176.75;;;31.88;34.43
39267;BME280;24967;51.154;13.812;2023-09-07T11:25:48;100172.63;;;32.06;34.77
39267;BME280;24967;51.154;13.812;2023-09-07T11:28:16;100167.94;;;32.07;33.63
39267;BME280;24967;51.154;13.812;2023-09-07T11:30:49;100172.63;;;32.11;35.05
39267;BME280;24967;51.154;13.812;2023-09-07T11:33:16;100171.78;;;32.21;34.79
39267;BME280;24967;51.154;13.812;2023-09-07T11:35:43;100158.53;;;32.28;35.05
39267;BME280;24967;51.154;13.812;2023-09-07T11:38:12;100165.66;;;32.50;33.89
39267;BME280;24967;51.154;13.812;2023-09-07T11:40:41;100158.78;;;32.37;34.15
39267;BME280;24967;51.154;13.812;2023-09-07T11:43:09;100168.47;;;32.24;33.89
39267;BME280;24967;51.154;13.812;2023-09-07T11:45:39;100169.53;;;32.28;34.95
39267;BME280;24967;51.154;13.812;2023-09-07T11:48:06;100170.09;;;32.25;34.73
39267;BME280;24967;51.154;13.812;2023-09-07T11:50:34;100161.28;;;32.38;33.25
39267;BME280;24967;51.154;13.812;2023-09-07T11:53:01;100164.03;;;32.38;33.14
39267;BME280;24967;51.154;13.812;2023-09-07T11:55:28;100162.66;;;32.36;33.45
39267;BME280;24967;51.154;13.812;2023-09-07T11:57:56;100156.91;;;32.32;33.85
39267;BME280;24967;51.154;13.812;2023-09-07T12:00:23;100157.22;;;32.15;33.04
39267;BME280;24967;51.154;13.812;2023-09-07T12:02:52;100163.00;;;32.04;33.23
39267;BME280;24967;51.154;13.812;2023-09-07T12:05:19;100158.88;;;32.06;33.22
39267;BME280;24967;51.154;13.812;2023-09-07T12:07:46;100157.78;;;31.92;33.63
39267;BME280;24967;51.154;13.812;2023-09-07T12:10:12;100149.81;;;31.85;33.09
39267;BME280;24967;51.154;13.812;2023-09-07T12:12:40;100142.13;;;31.82;33.29
39267;BME280;24967;51.154;13.812;2023-09-07T12:15:11;100144.56;;;31.89;33.88
39267;BME280;24967;51.154;13.812;2023-09-07T12:17:38;100147.66;;;31.92;33.43
39267;BME280;24967;51.154;13.812;2023-09-07T12:20:05;100138.81;;;31.85;32.75
39267;BME280;24967;51.154;13.812;2023-09-07T12:22:35;100140.47;;;31.76;32.96
39267;BME280;24967;51.154;13.812;2023-09-07T12:25:03;100139.38;;;31.67;33.55
39267;BME280;24967;51.154;13.812;2023-09-07T12:27:32;100134.72;;;31.62;33.51
39267;BME280;24967;51.154;13.812;2023-09-07T12:29:58;100134.16;;;31.76;33.78
39267;BME280;24967;51.154;13.812;2023-09-07T12:32:26;100129.19;;;31.83;33.34
39267;BME280;24967;51.154;13.812;2023-09-07T12:34:52;100128.94;;;31.79;33.75
39267;BME280;24967;51.154;13.812;2023-09-07T12:37:19;100123.44;;;31.79;32.56
39267;BME280;24967;51.154;13.812;2023-09-07T12:39:48;100120.16;;;31.62;33.26
39267;BME280;24967;51.154;13.812;2023-09-07T12:42:15;100125.63;;;31.62;33.28
39267;BME280;24967;51.154;13.812;2023-09-07T12:44:41;100127.59;;;31.71;32.68
39267;BME280;24967;51.154;13.812;2023-09-07T12:47:08;100125.63;;;31.77;32.94
39267;BME280;24967;51.154;13.812;2023-09-07T12:49:35;100121.25;;;31.86;32.76
39267;BME280;24967;51.154;13.812;2023-09-07T12:52:02;100110.50;;;32.05;33.21
39267;BME280;24967;51.154;13.812;2023-09-07T12:54:34;100110.50;;;32.00;33.35
39267;BME280;24967;51.154;13.812;2023-09-07T12:57:00;100107.47;;;32.07;32.51
39267;BME280;24967;51.154;13.812;2023-09-07T12:59:28;100108.31;;;32.02;33.03
39267;BME280;24967;51.154;13.812;2023-09-07T13:01:55;100108.00;;;32.04;32.73
39267;BME280;24967;51.154;13.812;2023-09-07T13:04:21;100110.78;;;31.99;33.35
39267;BME280;24967;51.154;13.812;2023-09-07T13:06:49;100102.00;;;31.97;34.26
39267;BME280;24967;51.154;13.812;2023-09-07T13:09:16;100107.75;;;32.00;33.64
39267;BME280;24967;51.154;13.812;2023-09-07T13:11:42;100104.44;;;32.08;33.00
39267;BME280;24967;51.154;13.812;2023-09-07T13:14:09;100111.06;;;31.87;33.99
39267;BME280;24967;51.154;13.812;2023-09-07T13:16:35;100102.00;;;31.81;33.91
39267;BME280;24967;51.154;13.812;2023-09-07T13:19:02;100104.75;;;31.86;34.37
39267;BME280;24967;51.154;13.812;2023-09-07T13:21:28;100101.72;;;31.83;33.88
39267;BME280;24967;51.154;13.812;2023-09-07T13:23:56;100103.09;;;31.80;34.72
39267;BME280;24967;51.154;13.812;2023-09-07T13:26:23;100096.75;;;31.85;34.62
39267;BME280;24967;51.154;13.812;2023-09-07T13:28:49;100094.88;;;31.80;34.76